Decoded Metar for VOTR (TIRUCHCHIRAPPALLI in INDIA) (IATA:TRZ) | Meteo·Mobile Aviation Weather
aviador You're here:

VOTR Decoded Metar

TIRUCHCHIRAPPALLI in INDIA
Report Time2019-05-21 02:00:00
UTC Time2019-05-21 02:26:26
Flight Rules mvfr MVFR
Wind190° at 06 kt
W.Decomp.*RWY 27: 1.2 kt HW 5.9 kt LCW
Visibility6000 m
Phenomena:N/A
Clouds:Few 016 Hf
Expected CloudBase > 2,000 ft AGL from Temp-Dew spread
CeilingNone
Temp30°C (ISA +16)
Dew Point25°C (75% RH)
Heat Index36.3°C
QNH1009 hPa
Density Alt2,625 ft
Elevation289 ft
Report Wrong Elevation
Raw Report
VOTR 210200Z 19006KT 6000 FEW016 30/25 Q1009 NOSIG=

Extra information for VOTR:More info

Metar Taf Metar & Taf Last 4 Metars F.Rules Stats Wind Profile Meteogram Temp Stats Airport Information Weather charts Add Link Nearby VenuesMetar ALERT Operation Metar Decoded Social comments